createdAt,value
2023-03-21T00:00:28.976Z,13.25
2023-03-21T00:02:55.520Z,12.35
2023-03-21T00:05:22.177Z,11.68
2023-03-21T00:07:48.829Z,12.98
2023-03-21T00:10:23.932Z,11.43
2023-03-21T00:12:58.510Z,13.25
2023-03-21T00:15:39.935Z,13.55
2023-03-21T00:18:12.820Z,16.55
2023-03-21T00:20:39.318Z,15.20
2023-03-21T00:23:06.028Z,13.52
2023-03-21T00:25:33.174Z,17.17
2023-03-21T00:28:07.788Z,12.68
2023-03-21T00:30:35.400Z,9.80
2023-03-21T00:33:12.111Z,15.02
2023-03-21T00:36:06.399Z,11.55
2023-03-21T00:38:34.444Z,13.90
2023-03-21T00:41:10.951Z,10.52
2023-03-21T00:43:44.275Z,10.32
2023-03-21T00:46:10.807Z,8.02
2023-03-21T00:48:39.301Z,13.60
2023-03-21T00:51:12.426Z,8.77
2023-03-21T00:53:39.026Z,10.35
2023-03-21T00:56:05.765Z,11.60
2023-03-21T00:58:32.434Z,13.88
2023-03-21T01:00:59.276Z,16.25
2023-03-21T01:03:26.670Z,13.55
2023-03-21T01:06:06.044Z,11.18
2023-03-21T01:08:52.357Z,10.10
2023-03-21T01:11:21.574Z,12.55
2023-03-21T01:13:54.718Z,14.27
2023-03-21T01:16:26.760Z,10.80
2023-03-21T01:18:53.424Z,11.88
2023-03-21T01:21:20.030Z,11.30
2023-03-21T01:23:46.892Z,13.98
2023-03-21T01:26:13.961Z,11.48
2023-03-21T01:28:41.680Z,12.18
2023-03-21T01:31:08.914Z,13.15
2023-03-21T01:33:35.976Z,11.20
2023-03-21T01:36:12.791Z,12.40
2023-03-21T01:38:41.181Z,12.45
2023-03-21T01:41:18.702Z,11.00
2023-03-21T01:43:47.617Z,14.18
2023-03-21T01:46:45.366Z,10.77
2023-03-21T01:49:36.184Z,13.18
2023-03-21T01:52:37.063Z,14.00
2023-03-21T01:55:12.437Z,12.73
2023-03-21T01:58:05.415Z,13.10
2023-03-21T02:00:55.429Z,8.88
2023-03-21T02:03:38.525Z,14.35
2023-03-21T02:06:24.391Z,11.48
2023-03-21T02:08:57.000Z,15.18
2023-03-21T02:11:23.901Z,13.82
2023-03-21T02:13:55.841Z,12.38
2023-03-21T02:16:28.731Z,12.90
2023-03-21T02:19:01.616Z,12.23
2023-03-21T02:21:38.816Z,12.80
2023-03-21T02:24:08.085Z,13.98
2023-03-21T02:26:42.334Z,15.75
2023-03-21T02:29:17.903Z,14.02
2023-03-21T02:31:52.508Z,11.77
2023-03-21T02:36:54.991Z,12.23
2023-03-21T02:39:25.772Z,12.27
2023-03-21T02:41:53.901Z,12.27
2023-03-21T02:44:34.775Z,11.75
2023-03-21T02:47:18.170Z,9.77
2023-03-21T02:49:50.545Z,13.52
2023-03-21T02:52:35.870Z,15.07
2023-03-21T02:55:06.167Z,13.75
2023-03-21T02:57:44.130Z,12.48
2023-03-21T03:00:17.749Z,12.07
2023-03-21T03:02:47.553Z,10.07
2023-03-21T03:05:24.366Z,16.15
2023-03-21T03:07:51.482Z,11.27
2023-03-21T03:10:38.505Z,13.00
2023-03-21T03:13:16.392Z,11.15
2023-03-21T03:16:03.205Z,10.38
2023-03-21T03:18:38.107Z,12.15
2023-03-21T03:21:10.748Z,11.88
2023-03-21T03:23:53.199Z,12.40
2023-03-21T03:26:23.166Z,9.70
2023-03-21T03:28:51.846Z,13.55
2023-03-21T03:31:21.963Z,12.90
2023-03-21T03:33:55.257Z,18.17
2023-03-21T03:36:32.159Z,10.43
2023-03-21T03:39:08.951Z,13.35
2023-03-21T03:44:37.890Z,8.30
2023-03-21T03:47:07.878Z,12.95
2023-03-21T03:49:41.952Z,13.25
2023-03-21T03:52:20.674Z,11.27
2023-03-21T03:55:11.912Z,12.55
2023-03-21T03:57:41.515Z,11.13
2023-03-21T04:00:12.467Z,12.18
2023-03-21T04:02:46.137Z,14.85
2023-03-21T04:05:21.121Z,14.73
2023-03-21T04:07:51.071Z,11.63
2023-03-21T04:10:22.774Z,8.93
2023-03-21T04:12:51.261Z,11.30
2023-03-21T04:15:31.958Z,11.48
2023-03-21T04:18:05.848Z,11.18
2023-03-21T04:20:37.289Z,11.73
2023-03-21T04:23:05.566Z,12.32
2023-03-21T04:25:38.640Z,15.88
2023-03-21T04:28:07.392Z,15.75
2023-03-21T04:30:40.741Z,16.10
2023-03-21T04:35:42.822Z,12.07
2023-03-21T04:38:09.671Z,11.63
2023-03-21T04:40:36.444Z,10.52
2023-03-21T04:43:03.185Z,11.10
2023-03-21T04:45:29.799Z,13.85
2023-03-21T04:47:57.419Z,11.18
2023-03-21T04:50:24.666Z,11.80
2023-03-21T04:52:51.165Z,16.13
2023-03-21T04:55:21.689Z,16.05
2023-03-21T04:57:48.757Z,12.10
2023-03-21T05:00:15.764Z,19.58
2023-03-21T05:02:42.968Z,19.42
2023-03-21T05:05:11.467Z,15.23
2023-03-21T05:07:39.093Z,14.80
2023-03-21T05:10:06.243Z,12.98
2023-03-21T05:12:32.973Z,13.45
2023-03-21T05:14:59.679Z,13.65
2023-03-21T05:17:28.459Z,14.63
2023-03-21T05:19:57.198Z,15.85
2023-03-21T05:22:26.847Z,11.88
2023-03-21T05:24:55.444Z,12.07
2023-03-21T05:27:45.424Z,8.95
2023-03-21T05:30:16.373Z,12.32
2023-03-21T05:32:44.220Z,16.23
2023-03-21T05:35:12.425Z,17.95
2023-03-21T05:37:40.021Z,12.10
2023-03-21T05:40:07.702Z,9.82
2023-03-21T05:42:35.847Z,11.68
2023-03-21T05:45:11.284Z,12.02
2023-03-21T05:47:38.985Z,13.00
2023-03-21T05:50:05.923Z,9.05
2023-03-21T05:52:33.622Z,10.52
2023-03-21T05:55:07.428Z,12.05
2023-03-21T05:57:39.180Z,16.40
2023-03-21T06:00:09.876Z,14.43
2023-03-21T06:02:42.557Z,11.27
2023-03-21T06:05:26.396Z,13.00
2023-03-21T06:07:54.092Z,8.75
2023-03-21T06:10:21.297Z,10.88
2023-03-21T06:12:49.503Z,10.88
2023-03-21T06:15:28.495Z,8.88
2023-03-21T06:18:17.431Z,8.55
2023-03-21T06:20:55.302Z,11.27
2023-03-21T06:23:21.996Z,10.38
2023-03-21T06:25:49.909Z,13.18
2023-03-21T06:28:16.535Z,9.40
2023-03-21T06:30:43.825Z,9.20
2023-03-21T06:33:15.462Z,9.98
2023-03-21T06:35:43.164Z,10.38
2023-03-21T06:38:10.931Z,10.85
2023-03-21T06:40:43.392Z,11.32
2023-03-21T06:43:09.936Z,10.60
2023-03-21T06:45:36.894Z,12.85
2023-03-21T06:48:03.741Z,8.77
2023-03-21T06:50:42.658Z,9.25
2023-03-21T06:53:09.335Z,9.13
2023-03-21T06:55:56.508Z,9.98
2023-03-21T06:58:23.216Z,9.38
2023-03-21T07:00:50.068Z,10.38
2023-03-21T07:03:16.994Z,9.15
2023-03-21T07:05:43.661Z,10.32
2023-03-21T07:08:12.288Z,10.98
2023-03-21T07:10:42.260Z,11.52
2023-03-21T07:13:10.517Z,9.43
2023-03-21T07:16:02.890Z,12.30
2023-03-21T07:18:30.949Z,13.35
2023-03-21T07:20:57.997Z,11.52
2023-03-21T07:23:25.912Z,10.20
2023-03-21T07:25:53.055Z,10.45
2023-03-21T07:28:20.160Z,12.27
2023-03-21T07:30:51.803Z,11.52
2023-03-21T07:33:18.475Z,14.63
2023-03-21T07:35:45.333Z,12.95
2023-03-21T07:38:12.380Z,14.38
2023-03-21T07:40:39.179Z,17.52
2023-03-21T07:43:06.006Z,15.80
2023-03-21T07:45:34.457Z,13.25
2023-03-21T07:48:01.414Z,15.52
2023-03-21T07:50:28.020Z,15.48
2023-03-21T07:52:54.694Z,15.88
2023-03-21T07:55:21.295Z,18.42
2023-03-21T07:57:51.602Z,13.90
2023-03-21T08:00:23.164Z,14.88
2023-03-21T08:02:57.817Z,17.15
2023-03-21T08:05:27.544Z,14.30
2023-03-21T08:07:54.057Z,19.35
2023-03-21T08:10:21.748Z,15.45
2023-03-21T08:12:48.664Z,15.98
2023-03-21T08:15:15.830Z,15.18
2023-03-21T08:17:45.646Z,16.50
2023-03-21T08:20:16.711Z,20.80
2023-03-21T08:22:43.774Z,17.35
2023-03-21T08:25:13.847Z,17.08
2023-03-21T08:27:41.896Z,19.48
2023-03-21T08:30:09.715Z,18.35
2023-03-21T08:32:38.613Z,12.65
2023-03-21T08:35:10.053Z,15.00
2023-03-21T08:37:37.530Z,19.85
2023-03-21T08:40:08.030Z,16.75
2023-03-21T08:42:34.910Z,16.65
2023-03-21T08:45:01.435Z,15.15
2023-03-21T08:47:27.973Z,14.45
2023-03-21T08:49:54.505Z,14.55
2023-03-21T08:52:21.260Z,13.98
2023-03-21T08:54:48.576Z,15.05
2023-03-21T08:57:15.156Z,15.20
2023-03-21T08:59:41.840Z,14.15
2023-03-21T09:02:08.488Z,13.50
2023-03-21T09:04:35.588Z,13.63
2023-03-21T09:07:05.198Z,16.55
2023-03-21T09:09:31.994Z,15.02
2023-03-21T09:11:58.624Z,16.38
2023-03-21T09:14:28.711Z,14.80
2023-03-21T09:16:56.157Z,15.68
2023-03-21T09:19:22.694Z,12.30
2023-03-21T09:21:49.282Z,16.80
2023-03-21T09:24:18.170Z,15.40
2023-03-21T09:26:45.133Z,14.60
2023-03-21T09:29:11.708Z,13.43
2023-03-21T09:31:40.021Z,14.98
2023-03-21T09:34:07.014Z,17.13
2023-03-21T09:36:35.458Z,13.60
2023-03-21T09:39:04.004Z,12.65
2023-03-21T09:41:49.210Z,10.15
2023-03-21T09:46:45.419Z,12.73
2023-03-21T09:49:17.046Z,14.15
2023-03-21T09:51:49.292Z,11.10
2023-03-21T09:54:22.417Z,12.30
2023-03-21T09:56:50.775Z,10.75
2023-03-21T09:59:22.782Z,10.95
2023-03-21T10:01:50.485Z,11.18
2023-03-21T10:04:19.020Z,11.85
2023-03-21T10:06:57.621Z,12.43
2023-03-21T10:09:25.984Z,10.57
2023-03-21T10:11:55.851Z,10.98
2023-03-21T10:14:22.605Z,11.80
2023-03-21T10:16:52.119Z,13.25
2023-03-21T10:19:19.724Z,9.48
2023-03-21T10:22:00.300Z,14.95
2023-03-21T10:24:29.243Z,14.02
2023-03-21T10:26:56.147Z,10.98
2023-03-21T10:29:25.424Z,9.50
2023-03-21T10:31:52.885Z,9.10
2023-03-21T10:34:23.742Z,8.98
2023-03-21T10:36:50.569Z,10.63
2023-03-21T10:39:23.469Z,8.85
2023-03-21T10:41:50.726Z,10.13
2023-03-21T10:44:18.147Z,10.52
2023-03-21T10:46:52.323Z,11.52
2023-03-21T10:49:21.271Z,8.23
2023-03-21T10:51:51.149Z,10.90
2023-03-21T10:54:22.149Z,8.40
2023-03-21T10:57:05.539Z,7.45
2023-03-21T10:59:38.337Z,9.55
2023-03-21T11:02:05.621Z,7.82
2023-03-21T11:04:32.236Z,8.38
2023-03-21T11:07:01.392Z,7.88
2023-03-21T11:09:43.285Z,6.35
2023-03-21T11:12:10.973Z,7.32
2023-03-21T11:14:38.828Z,10.13
2023-03-21T11:17:20.385Z,8.65
2023-03-21T11:19:47.980Z,7.25
2023-03-21T11:22:15.356Z,9.50
2023-03-21T11:24:44.053Z,10.05
2023-03-21T11:27:10.732Z,8.02
2023-03-21T11:29:44.288Z,8.55
2023-03-21T11:32:12.761Z,9.10
2023-03-21T11:34:44.661Z,9.70
2023-03-21T11:37:18.905Z,5.95
2023-03-21T11:39:47.880Z,8.85
2023-03-21T11:42:30.454Z,9.48
2023-03-21T11:45:16.684Z,8.23
2023-03-21T11:47:43.927Z,11.70
2023-03-21T11:50:17.692Z,7.35
2023-03-21T11:52:59.593Z,7.47
2023-03-21T11:55:40.224Z,11.90
2023-03-21T11:58:15.157Z,9.02
2023-03-21T12:03:14.179Z,10.13
2023-03-21T12:05:50.713Z,9.52
2023-03-21T12:08:20.164Z,9.07
2023-03-21T12:10:59.948Z,9.18
2023-03-21T12:13:38.517Z,9.00
2023-03-21T12:16:05.166Z,9.82
2023-03-21T12:18:40.800Z,12.48
2023-03-21T12:21:12.815Z,7.43
2023-03-21T12:23:42.470Z,12.52
2023-03-21T12:26:14.137Z,6.68
2023-03-21T12:28:59.371Z,7.50
2023-03-21T12:34:01.690Z,8.15
2023-03-21T12:36:28.198Z,10.00
2023-03-21T12:39:01.021Z,10.13
2023-03-21T12:41:34.251Z,8.05
2023-03-21T12:44:00.854Z,8.98
2023-03-21T12:46:32.290Z,8.77
2023-03-21T12:49:02.616Z,7.45
2023-03-21T12:51:32.553Z,9.90
2023-03-21T12:54:02.444Z,7.63
2023-03-21T12:56:31.263Z,8.25
2023-03-21T12:59:00.644Z,6.05
2023-03-21T13:01:28.797Z,7.22
2023-03-21T13:04:18.641Z,6.63
2023-03-21T13:06:46.666Z,8.13
2023-03-21T13:09:23.373Z,5.68
2023-03-21T13:11:57.017Z,4.20
2023-03-21T13:14:34.009Z,4.55
2023-03-21T13:17:04.120Z,4.55
2023-03-21T13:19:33.773Z,6.30
2023-03-21T13:22:14.076Z,5.78
2023-03-21T13:24:40.955Z,6.47
2023-03-21T13:27:16.543Z,4.97
2023-03-21T13:30:02.447Z,7.20
2023-03-21T13:32:39.823Z,7.15
2023-03-21T13:35:09.776Z,8.27
2023-03-21T13:37:39.390Z,7.15
2023-03-21T13:40:12.107Z,8.30
2023-03-21T13:42:44.021Z,3.78
2023-03-21T13:45:11.421Z,5.82
2023-03-21T13:47:42.613Z,5.55
2023-03-21T13:50:18.018Z,5.05
2023-03-21T13:53:10.946Z,3.78
2023-03-21T13:55:42.619Z,4.57
2023-03-21T13:58:27.842Z,4.35
2023-03-21T14:03:22.493Z,4.97
2023-03-21T14:05:49.939Z,6.10
2023-03-21T14:08:27.955Z,5.75
2023-03-21T14:11:00.570Z,5.63
2023-03-21T14:13:28.550Z,7.03
2023-03-21T14:16:08.248Z,3.90
2023-03-21T14:18:53.585Z,3.53
2023-03-21T14:21:24.669Z,7.35
2023-03-21T14:23:58.648Z,6.93
2023-03-21T14:26:26.231Z,6.65
2023-03-21T14:28:53.013Z,4.63
2023-03-21T14:31:20.313Z,7.10
2023-03-21T14:33:53.552Z,4.10
2023-03-21T14:36:28.090Z,3.40
2023-03-21T14:39:03.833Z,5.88
2023-03-21T14:41:31.485Z,3.85
2023-03-21T14:44:12.075Z,5.10
2023-03-21T14:46:39.278Z,7.45
2023-03-21T14:49:19.906Z,4.28
2023-03-21T14:51:47.068Z,6.90
2023-03-21T14:54:17.561Z,4.78
2023-03-21T14:56:53.458Z,4.68
2023-03-21T14:59:52.095Z,5.97
2023-03-21T15:02:38.873Z,3.35
2023-03-21T15:05:08.397Z,3.05
2023-03-21T15:07:36.298Z,3.85
2023-03-21T15:10:07.816Z,4.05
2023-03-21T15:12:34.596Z,3.60
2023-03-21T15:15:01.713Z,4.35
2023-03-21T15:17:28.801Z,4.40
2023-03-21T15:19:55.510Z,8.13
2023-03-21T15:22:27.657Z,8.18
2023-03-21T15:25:00.785Z,5.03
2023-03-21T15:27:28.945Z,9.50
2023-03-21T15:29:56.609Z,7.43
2023-03-21T15:32:24.973Z,4.88
2023-03-21T15:34:54.041Z,4.10
2023-03-21T15:37:25.966Z,5.20
2023-03-21T15:39:52.692Z,4.18
2023-03-21T15:42:27.085Z,5.45
2023-03-21T15:44:55.625Z,2.95
2023-03-21T15:47:41.579Z,5.28
2023-03-21T15:50:17.436Z,5.70
2023-03-21T15:52:44.068Z,4.40
2023-03-21T15:58:16.644Z,7.15
2023-03-21T16:00:59.338Z,7.22
2023-03-21T16:03:37.103Z,9.32
2023-03-21T16:06:12.678Z,6.65
2023-03-21T16:08:53.222Z,7.28
2023-03-21T16:11:20.089Z,8.93
2023-03-21T16:13:46.628Z,10.38
2023-03-21T16:16:21.219Z,9.77
2023-03-21T16:18:47.838Z,11.45
2023-03-21T16:21:15.287Z,11.50
2023-03-21T16:23:42.128Z,10.48
2023-03-21T16:26:13.151Z,10.95
2023-03-21T16:28:39.963Z,12.35
2023-03-21T16:31:06.650Z,11.02
2023-03-21T16:33:33.207Z,9.30
2023-03-21T16:36:00.844Z,10.43
2023-03-21T16:38:27.738Z,10.05
2023-03-21T16:40:54.227Z,9.65
2023-03-21T16:43:20.896Z,10.75
2023-03-21T16:45:47.702Z,11.93
2023-03-21T16:48:16.622Z,10.55
2023-03-21T16:50:46.263Z,10.30
2023-03-21T16:53:12.889Z,12.18
2023-03-21T16:55:39.423Z,13.05
2023-03-21T16:58:06.397Z,15.98
2023-03-21T17:00:32.986Z,10.68
2023-03-21T17:03:01.122Z,12.75
2023-03-21T17:05:30.220Z,14.63
2023-03-21T17:07:57.174Z,13.80
2023-03-21T17:10:25.060Z,10.95
2023-03-21T17:12:51.664Z,11.13
2023-03-21T17:15:18.502Z,10.45
2023-03-21T17:17:45.663Z,12.27
2023-03-21T17:20:17.733Z,11.20
2023-03-21T17:22:44.806Z,13.55
2023-03-21T17:25:11.693Z,12.93
2023-03-21T17:27:38.782Z,10.40
2023-03-21T17:30:12.093Z,13.10
2023-03-21T17:32:38.746Z,9.65
2023-03-21T17:35:05.420Z,11.77
2023-03-21T17:37:32.141Z,10.40
2023-03-21T17:39:58.671Z,8.98
2023-03-21T17:42:25.315Z,8.27
2023-03-21T17:44:51.904Z,10.02
2023-03-21T17:47:18.429Z,9.55
2023-03-21T17:49:45.452Z,7.07
2023-03-21T17:52:12.151Z,8.02
2023-03-21T17:54:38.650Z,7.65
2023-03-21T17:57:05.605Z,10.73
2023-03-21T17:59:32.205Z,7.28
2023-03-21T18:01:58.840Z,6.82
2023-03-21T18:04:27.150Z,7.72
2023-03-21T18:06:57.369Z,7.25
2023-03-21T18:09:24.061Z,7.57
2023-03-21T18:11:50.846Z,5.57
2023-03-21T18:14:26.314Z,6.78
2023-03-21T18:16:55.031Z,7.25
2023-03-21T18:19:21.593Z,4.60
2023-03-21T18:21:48.186Z,5.30
2023-03-21T18:24:15.413Z,6.30
2023-03-21T18:26:42.547Z,7.43
2023-03-21T18:30:13.189Z,6.03
2023-03-21T18:32:06.297Z,7.18
2023-03-21T18:34:35.033Z,9.50
2023-03-21T18:37:04.007Z,4.60
2023-03-21T18:39:31.416Z,8.43
2023-03-21T18:42:02.616Z,5.68
2023-03-21T18:44:37.535Z,7.70
2023-03-21T18:47:04.612Z,8.10
2023-03-21T18:52:17.922Z,8.18
2023-03-21T18:54:44.435Z,5.63
2023-03-21T18:59:59.133Z,3.47
2023-03-21T19:02:25.783Z,6.07
2023-03-21T19:04:52.422Z,6.32
2023-03-21T19:07:19.164Z,6.22
2023-03-21T19:10:09.461Z,5.65
2023-03-21T19:12:33.075Z,4.28
2023-03-21T19:14:59.628Z,5.60
2023-03-21T19:18:15.746Z,5.32
2023-03-21T19:20:14.125Z,3.28
2023-03-21T19:22:40.887Z,7.43
2023-03-21T19:25:08.151Z,5.72
2023-03-21T19:27:35.789Z,8.48
2023-03-21T19:30:13.966Z,7.72
2023-03-21T19:32:41.389Z,7.38
2023-03-21T19:35:08.150Z,10.55
2023-03-21T19:37:36.347Z,4.65
2023-03-21T19:40:05.484Z,8.88
2023-03-21T19:42:32.527Z,7.20
2023-03-21T19:44:59.140Z,7.85
2023-03-21T19:47:26.373Z,9.38
2023-03-21T19:52:40.766Z,8.65
2023-03-21T19:55:07.467Z,6.35
2023-03-21T19:57:34.861Z,13.27
2023-03-21T20:00:04.902Z,9.70
2023-03-21T20:02:36.620Z,11.82
2023-03-21T20:05:04.036Z,8.50
2023-03-21T20:07:32.680Z,9.32
2023-03-21T20:09:59.760Z,10.30
2023-03-21T20:12:27.463Z,8.15
2023-03-21T20:15:07.039Z,7.85
2023-03-21T20:17:41.135Z,10.15
2023-03-21T20:20:14.398Z,11.55
2023-03-21T20:25:28.553Z,10.45
2023-03-21T20:28:12.856Z,11.45
2023-03-21T20:30:46.251Z,10.25
2023-03-21T20:33:13.288Z,12.20
2023-03-21T20:36:27.703Z,9.02
2023-03-21T20:38:27.277Z,14.60
2023-03-21T20:40:53.744Z,10.63
2023-03-21T20:44:13.924Z,13.25
2023-03-21T20:46:08.581Z,11.52
2023-03-21T20:48:35.533Z,10.75
2023-03-21T20:51:39.279Z,10.20
2023-03-21T20:53:49.749Z,14.05
2023-03-21T20:56:16.265Z,11.75
2023-03-21T20:59:02.043Z,10.73
2023-03-21T21:01:29.482Z,8.23
2023-03-21T21:03:57.598Z,10.10
2023-03-21T21:06:24.266Z,14.55
2023-03-21T21:08:51.038Z,13.32
2023-03-21T21:12:03.020Z,11.52
2023-03-21T21:14:05.165Z,8.70
2023-03-21T21:16:31.672Z,11.65
2023-03-21T21:18:58.316Z,13.25
2023-03-21T21:21:25.358Z,12.57
2023-03-21T21:23:51.903Z,9.98
2023-03-21T21:26:18.445Z,10.50
2023-03-21T21:28:47.665Z,12.90
2023-03-21T21:31:16.697Z,10.68
2023-03-21T21:33:46.204Z,9.50
2023-03-21T21:36:13.198Z,9.88
2023-03-21T21:38:42.586Z,12.85
2023-03-21T21:41:14.413Z,12.27
2023-03-21T21:43:41.450Z,8.30
2023-03-21T21:46:07.988Z,11.93
2023-03-21T21:48:34.634Z,18.02
2023-03-21T21:51:02.477Z,12.10
2023-03-21T21:53:29.161Z,15.80
2023-03-21T21:55:56.072Z,14.15
2023-03-21T21:58:22.717Z,13.80
2023-03-21T22:00:52.566Z,7.75
2023-03-21T22:03:22.262Z,17.02
2023-03-21T22:05:49.873Z,10.73
2023-03-21T22:08:16.666Z,15.05
2023-03-21T22:10:44.993Z,15.85
2023-03-21T22:13:11.646Z,10.38
2023-03-21T22:15:38.274Z,9.27
2023-03-21T22:18:04.851Z,9.85
2023-03-21T22:20:32.042Z,9.13
2023-03-21T22:22:59.659Z,12.13
2023-03-21T22:25:26.634Z,8.32
2023-03-21T22:27:53.346Z,8.15
2023-03-21T22:30:20.010Z,9.07
2023-03-21T22:32:51.541Z,12.68
2023-03-21T22:35:23.376Z,7.82
2023-03-21T22:37:49.940Z,9.52
2023-03-21T22:40:16.836Z,9.27
2023-03-21T22:42:43.700Z,7.93
2023-03-21T22:45:11.595Z,13.77
2023-03-21T22:47:38.288Z,10.10
2023-03-21T22:50:06.082Z,8.50
2023-03-21T22:52:32.816Z,9.75
2023-03-21T22:54:59.390Z,14.93
2023-03-21T22:57:26.067Z,13.52
2023-03-21T22:59:52.773Z,9.32
2023-03-21T23:02:19.289Z,15.02
2023-03-21T23:04:46.004Z,12.90
2023-03-21T23:07:12.555Z,8.73
2023-03-21T23:09:39.164Z,9.57
2023-03-21T23:12:05.801Z,9.02
2023-03-21T23:14:32.466Z,9.38
2023-03-21T23:17:00.231Z,9.13
2023-03-21T23:19:28.656Z,13.02
2023-03-21T23:21:55.945Z,11.85
2023-03-21T23:24:22.831Z,10.43
2023-03-21T23:26:49.318Z,10.40
2023-03-21T23:29:15.891Z,12.75
2023-03-21T23:31:42.389Z,11.00
2023-03-21T23:34:09.149Z,12.52
2023-03-21T23:36:35.767Z,9.40
2023-03-21T23:39:02.462Z,12.88
2023-03-21T23:41:29.010Z,11.30
2023-03-21T23:43:55.714Z,10.65
2023-03-21T23:46:22.223Z,15.68
2023-03-21T23:48:49.119Z,11.05
2023-03-21T23:51:16.945Z,7.82
2023-03-21T23:53:44.450Z,9.85
2023-03-21T23:56:18.405Z,9.23
2023-03-21T23:58:45.618Z,11.10
